Time;durP1;ratioP1;P1;durP2;ratioP2;P2;SDS_P1;SDS_P2;PMS_P1;PMS_P2;Temp;Humidity;BMP_temperature;BMP_pressure;BME280_temperature;BME280_humidity;BME280_pressure;Samples;Min_cycle;Max_cycle;Signal;HPM_P1;HPM_P2
2023/04/11 00:01:10;;;;;;;6.40;1.20;;;7.00;99.90;;;;;;4976892;28;20582;-92
2023/04/11 00:03:37;;;;;;;5.68;1.10;;;6.90;99.90;;;;;;4969502;28;20034;-94
2023/04/11 00:06:04;;;;;;;4.70;1.00;;;6.90;99.90;;;;;;4983389;28;20027;-94
2023/04/11 00:08:29;;;;;;;4.03;1.77;;;6.90;99.90;;;;;;4971499;28;20050;-93
2023/04/11 00:10:55;;;;;;;11.10;2.55;;;7.00;99.90;;;;;;4989290;28;20054;-95
2023/04/11 00:13:22;;;;;;;9.93;2.63;;;7.00;99.90;;;;;;4955606;28;20170;-94
2023/04/11 00:15:52;;;;;;;10.73;2.30;;;7.00;99.90;;;;;;4975069;28;20061;-95
2023/04/11 00:18:18;;;;;;;9.60;2.58;;;7.00;99.90;;;;;;4952406;28;20121;-96
2023/04/11 00:20:44;;;;;;;8.85;1.42;;;7.00;99.90;;;;;;4972921;28;20575;-95
2023/04/11 00:23:09;;;;;;;9.23;2.60;;;7.00;99.90;;;;;;4954782;28;20141;-95
2023/04/11 00:25:36;;;;;;;8.77;2.60;;;7.00;99.90;;;;;;4963518;28;20038;-95
2023/04/11 00:28:01;;;;;;;9.80;3.20;;;7.00;99.90;;;;;;4957046;28;20061;-95
2023/04/11 00:30:27;;;;;;;10.45;1.98;;;7.00;99.90;;;;;;4957575;28;20578;-95
2023/04/11 00:32:53;;;;;;;10.82;3.85;;;6.90;99.90;;;;;;4990187;28;20047;-96
2023/04/11 00:35:19;;;;;;;8.32;2.72;;;6.90;99.90;;;;;;4955654;28;20152;-95
2023/04/11 00:37:45;;;;;;;11.40;4.30;;;6.90;99.90;;;;;;4955779;28;20076;-94
2023/04/11 00:40:16;;;;;;;6.95;2.30;;;6.90;99.90;;;;;;4970058;28;20042;-95
2023/04/11 00:42:42;;;;;;;6.60;1.80;;;6.90;99.90;;;;;;4973150;28;20081;-95
2023/04/11 00:45:08;;;;;;;9.07;3.13;;;6.80;99.90;;;;;;4982293;28;20041;-94
2023/04/11 00:47:34;;;;;;;4.45;1.27;;;6.80;99.90;;;;;;4997795;28;20041;-95
2023/04/11 00:50:00;;;;;;;6.50;1.80;;;6.80;99.90;;;;;;4969216;28;20057;-96
2023/04/11 00:52:26;;;;;;;11.88;3.25;;;6.70;99.90;;;;;;4964634;28;20097;-94
2023/04/11 00:54:51;;;;;;;8.40;2.20;;;6.80;99.90;;;;;;4986084;28;20053;-96
2023/04/11 00:57:18;;;;;;;10.98;2.47;;;6.70;99.90;;;;;;5018267;28;20073;-91
2023/04/11 00:59:47;;;;;;;11.98;4.88;;;6.80;99.90;;;;;;5004935;28;20038;-95
2023/04/11 01:02:13;;;;;;;9.27;2.78;;;6.80;99.90;;;;;;5004508;28;20037;-95
2023/04/11 01:04:39;;;;;;;14.50;2.92;;;6.80;99.90;;;;;;4989638;28;20050;-95
2023/04/11 01:07:06;;;;;;;14.43;3.30;;;6.80;99.90;;;;;;4993582;28;20041;-96
2023/04/11 01:09:35;;;;;;;14.40;5.68;;;6.90;99.90;;;;;;4988580;28;20161;-95
2023/04/11 01:12:02;;;;;;;12.82;4.68;;;7.00;99.90;;;;;;5006173;28;20045;-96
2023/04/11 01:14:28;;;;;;;15.85;5.40;;;7.10;99.90;;;;;;4991724;28;20096;-96
2023/04/11 01:16:55;;;;;;;10.77;2.55;;;7.20;99.90;;;;;;5008681;28;20065;-96
2023/04/11 01:19:23;;;;;;;12.85;3.72;;;7.20;99.90;;;;;;4997406;28;20042;-96
2023/04/11 01:21:51;;;;;;;9.88;3.03;;;7.20;99.90;;;;;;5006799;28;20152;-96
2023/04/11 01:24:17;;;;;;;9.32;2.20;;;7.30;99.90;;;;;;4994881;28;20037;-94
2023/04/11 01:26:43;;;;;;;12.32;4.50;;;7.30;99.90;;;;;;5014283;28;20093;-96
2023/04/11 01:29:08;;;;;;;11.70;2.90;;;7.40;99.90;;;;;;5025170;28;20034;-96
2023/04/11 01:31:35;;;;;;;15.00;4.93;;;7.40;99.90;;;;;;5027498;28;20087;-96
2023/04/11 01:34:02;;;;;;;15.05;4.90;;;7.40;99.90;;;;;;5032062;28;20061;-95
2023/04/11 01:36:28;;;;;;;13.65;4.60;;;7.50;99.90;;;;;;5025475;28;20038;-95
2023/04/11 01:38:54;;;;;;;8.80;2.28;;;7.50;99.90;;;;;;5015057;28;20517;-96
2023/04/11 01:41:22;;;;;;;12.75;4.20;;;7.40;99.90;;;;;;5010800;28;20038;-95
2023/04/11 01:43:48;;;;;;;10.48;2.72;;;7.40;99.90;;;;;;4997939;28;20496;-95
2023/04/11 01:46:14;;;;;;;11.57;4.13;;;7.30;99.90;;;;;;5012513;28;20490;-95
2023/04/11 01:48:40;;;;;;;8.63;2.50;;;7.30;99.90;;;;;;4995150;28;20010;-96
2023/04/11 01:51:06;;;;;;;12.95;4.72;;;7.20;99.90;;;;;;5004898;28;20100;-95
2023/04/11 01:53:32;;;;;;;14.25;4.90;;;7.20;99.90;;;;;;5008783;28;20065;-96
2023/04/11 01:55:58;;;;;;;15.35;4.82;;;7.20;99.90;;;;;;4978692;28;20097;-96
2023/04/11 01:58:24;;;;;;;7.65;2.85;;;7.10;99.90;;;;;;4960960;28;20043;-96
2023/04/11 02:00:49;;;;;;;12.25;5.05;;;7.10;99.90;;;;;;4956863;28;20038;-96
2023/04/11 02:06:01;;;;;;;7.20;2.45;;;7.10;99.90;;;;;;4996249;28;20054;-95
2023/04/11 02:08:28;;;;;;;11.60;4.88;;;7.00;99.90;;;;;;4982139;28;20045;-96
2023/04/11 02:10:54;;;;;;;13.65;4.88;;;7.00;99.90;;;;;;4979751;28;20076;-95
2023/04/11 02:13:20;;;;;;;8.98;2.80;;;7.10;99.90;;;;;;4963040;28;20039;-96
2023/04/11 02:15:45;;;;;;;12.75;2.67;;;7.10;99.90;;;;;;4982764;28;20042;-96
2023/04/11 02:18:11;;;;;;;14.60;4.82;;;7.00;99.90;;;;;;4960207;28;20070;-95
2023/04/11 02:20:39;;;;;;;14.02;5.07;;;7.00;99.90;;;;;;4976662;28;20042;-96
2023/04/11 02:23:05;;;;;;;9.63;2.45;;;7.10;99.90;;;;;;4962885;28;20049;-96
2023/04/11 02:25:31;;;;;;;17.00;5.78;;;7.10;99.90;;;;;;4969926;28;20045;-93
2023/04/11 02:27:56;;;;;;;14.30;4.85;;;7.10;99.90;;;;;;4975200;28;20098;-94
2023/04/11 02:30:22;;;;;;;18.83;5.50;;;7.20;99.90;;;;;;4986616;28;20050;-94
2023/04/11 02:32:48;;;;;;;15.27;5.53;;;7.20;99.90;;;;;;4961782;28;20088;-96
2023/04/11 02:35:15;;;;;;;13.43;5.30;;;7.30;99.90;;;;;;4974199;28;20034;-95
2023/04/11 02:37:42;;;;;;;16.67;5.97;;;7.30;99.90;;;;;;4989082;28;20066;-96
2023/04/11 02:40:09;;;;;;;10.15;2.28;;;7.30;99.90;;;;;;4990075;28;20058;-96
2023/04/11 02:43:05;;;;;;;10.23;3.20;;;7.40;99.90;;;;;;4974651;28;20339;-95
2023/04/11 02:48:23;;;;;;;11.98;3.58;;;7.50;99.90;;;;;;5035586;28;20486;-96
2023/04/11 02:50:49;;;;;;;11.88;3.90;;;7.40;99.90;;;;;;5038842;28;20059;-92
2023/04/11 02:53:15;;;;;;;5.90;1.65;;;7.40;99.90;;;;;;5043868;28;20052;-96
2023/04/11 02:55:41;;;;;;;9.90;3.50;;;7.40;99.90;;;;;;5039236;28;20029;-96
2023/04/11 02:58:06;;;;;;;10.68;4.07;;;7.40;99.90;;;;;;5054309;22;20061;-96
2023/04/11 03:00:32;;;;;;;13.85;3.97;;;7.40;99.90;;;;;;5017523;28;20076;-95
2023/04/11 03:02:58;;;;;;;10.02;2.50;;;7.40;99.90;;;;;;5039186;28;20088;-96
2023/04/11 03:05:23;;;;;;;12.35;4.50;;;7.40;99.90;;;;;;5074789;23;20073;-93
2023/04/11 03:07:49;;;;;;;11.40;4.70;;;7.40;99.90;;;;;;5013256;28;20553;-95
2023/04/11 03:10:15;;;;;;;13.63;5.30;;;7.40;99.90;;;;;;5021899;28;20033;-95
2023/04/11 03:12:41;;;;;;;8.05;2.50;;;7.40;99.90;;;;;;5018777;28;20398;-94
2023/04/11 03:15:07;;;;;;;20.63;6.28;;;7.40;99.90;;;;;;5033112;28;20061;-96
2023/04/11 03:17:33;;;;;;;14.77;3.45;;;7.40;99.90;;;;;;5035209;28;20029;-96
2023/04/11 03:19:59;;;;;;;14.80;3.38;;;7.40;99.90;;;;;;5021606;28;20056;-96
2023/04/11 03:22:25;;;;;;;19.90;6.40;;;7.40;99.90;;;;;;5026707;28;20052;-96
2023/04/11 03:24:51;;;;;;;22.60;7.35;;;7.40;99.90;;;;;;5017570;28;20042;-96
2023/04/11 03:27:16;;;;;;;25.90;7.35;;;7.40;99.90;;;;;;5018018;28;20453;-96
2023/04/11 03:29:42;;;;;;;13.10;3.25;;;7.50;99.90;;;;;;5002508;28;20038;-95
2023/04/11 03:32:08;;;;;;;22.60;6.85;;;7.50;99.90;;;;;;5019631;28;20041;-96
2023/04/11 03:34:34;;;;;;;16.23;3.60;;;7.50;99.90;;;;;;5018231;28;20036;-96
2023/04/11 03:37:00;;;;;;;13.63;3.63;;;7.50;99.90;;;;;;5003319;28;20037;-96
2023/04/11 03:39:28;;;;;;;19.92;6.70;;;7.50;99.90;;;;;;5034237;28;20045;-96
2023/04/11 03:41:53;;;;;;;21.75;5.93;;;7.60;99.90;;;;;;5015703;28;20042;-95
2023/04/11 03:44:19;;;;;;;21.73;5.60;;;7.60;99.90;;;;;;5017579;28;20038;-95
2023/04/11 05:05:12;;;;;;;11.80;3.22;;;8.30;99.90;;;;;;1481124;26;20141;-92
2023/04/11 05:07:38;;;;;;;10.10;3.08;;;8.30;99.90;;;;;;4985012;28;20054;-92
2023/04/11 05:10:04;;;;;;;10.15;3.53;;;8.20;99.90;;;;;;4994814;28;20049;-91
2023/04/11 05:12:30;;;;;;;11.98;3.40;;;8.30;99.90;;;;;;4996847;28;20057;-96
2023/04/11 05:14:55;;;;;;;9.02;2.15;;;8.30;99.90;;;;;;4998447;28;20042;-89
2023/04/11 05:17:22;;;;;;;8.73;2.00;;;8.20;99.90;;;;;;4989374;28;20479;-92
2023/04/11 05:19:48;;;;;;;9.50;3.60;;;8.20;99.90;;;;;;4995122;28;20069;-90
2023/04/11 05:22:13;;;;;;;12.00;3.20;;;8.30;99.90;;;;;;4990252;28;20055;-92
2023/04/11 05:24:39;;;;;;;9.10;2.00;;;8.40;99.90;;;;;;4993763;28;20041;-92
2023/04/11 05:27:05;;;;;;;4.90;1.35;;;8.30;99.90;;;;;;4994603;28;20367;-92
2023/04/11 05:29:30;;;;;;;11.07;3.10;;;8.30;99.90;;;;;;4988354;28;20118;-93
2023/04/11 05:31:56;;;;;;;12.45;3.22;;;8.20;99.90;;;;;;4966776;28;20109;-92
2023/04/11 05:34:22;;;;;;;13.48;3.85;;;8.30;99.90;;;;;;4989219;28;20076;-94
2023/04/11 05:36:47;;;;;;;11.35;3.13;;;8.30;99.90;;;;;;4975502;28;20176;-88
2023/04/11 05:39:13;;;;;;;6.57;1.73;;;8.20;99.90;;;;;;4990258;28;20395;-90
2023/04/11 05:41:38;;;;;;;7.05;1.90;;;8.20;99.90;;;;;;4990764;28;20093;-91
2023/04/11 05:44:04;;;;;;;11.52;3.10;;;8.20;99.90;;;;;;4995366;28;20034;-89
2023/04/11 05:46:35;;;;;;;11.27;3.00;;;8.20;99.90;;;;;;4990573;28;20042;-91
2023/04/11 05:49:01;;;;;;;6.72;1.42;;;8.20;99.90;;;;;;4991261;28;20062;-90
2023/04/11 05:51:27;;;;;;;11.48;3.10;;;8.20;99.90;;;;;;4970116;28;20466;-90
2023/04/11 05:53:52;;;;;;;11.82;3.15;;;8.20;99.90;;;;;;4991312;28;20558;-93
2023/04/11 05:56:18;;;;;;;10.63;2.88;;;8.30;99.90;;;;;;4992171;28;20108;-96
2023/04/11 05:58:43;;;;;;;12.05;3.15;;;8.30;99.90;;;;;;4991090;28;20483;-90
2023/04/11 06:01:17;;;;;;;13.63;3.45;;;8.40;99.90;;;;;;4981793;28;20054;-91
2023/04/11 06:03:45;;;;;;;10.73;3.38;;;8.30;99.90;;;;;;4980456;28;20497;-93
2023/04/11 06:06:11;;;;;;;4.22;1.23;;;8.30;99.90;;;;;;4992324;28;20479;-89
2023/04/11 06:08:37;;;;;;;10.55;3.25;;;8.30;99.90;;;;;;4980068;28;20066;-94
2023/04/11 06:11:03;;;;;;;5.03;1.05;;;8.40;99.90;;;;;;4990670;28;20042;-95
2023/04/11 06:13:29;;;;;;;11.88;3.15;;;8.40;99.90;;;;;;4986658;28;20039;-94
2023/04/11 06:15:55;;;;;;;9.45;3.05;;;8.50;99.90;;;;;;4981122;28;20042;-95
2023/04/11 06:18:20;;;;;;;5.80;1.20;;;8.40;99.90;;;;;;4979739;28;20054;-94
2023/04/11 06:20:47;;;;;;;3.35;0.90;;;8.40;99.90;;;;;;4998535;28;20035;-94
2023/04/11 06:23:13;;;;;;;9.98;2.90;;;8.40;99.90;;;;;;5000492;28;20402;-93
2023/04/11 06:25:39;;;;;;;9.38;2.50;;;8.40;99.90;;;;;;4997757;28;20048;-87
2023/04/11 06:28:04;;;;;;;10.80;3.00;;;8.40;99.90;;;;;;4996258;28;20573;-88
2023/04/11 06:30:30;;;;;;;12.70;3.10;;;8.40;99.90;;;;;;4993457;28;20038;-89
2023/04/11 06:32:56;;;;;;;10.57;3.15;;;8.50;99.90;;;;;;4990791;28;20038;-90
2023/04/11 06:35:23;;;;;;;6.38;1.73;;;8.40;99.90;;;;;;4986157;28;20790;-91
2023/04/11 06:37:50;;;;;;;10.25;2.85;;;8.50;99.90;;;;;;4988202;28;20042;-91
2023/04/11 06:40:18;;;;;;;11.35;3.03;;;8.60;99.90;;;;;;4993017;28;20065;-92
2023/04/11 06:42:45;;;;;;;6.53;1.90;;;8.60;99.90;;;;;;4988570;28;20038;-90
2023/04/11 06:45:11;;;;;;;8.88;3.05;;;8.60;99.90;;;;;;4986737;28;20698;-89
2023/04/11 06:47:37;;;;;;;12.25;3.13;;;8.70;99.90;;;;;;4989443;28;20042;-91
2023/04/11 06:50:04;;;;;;;9.88;2.67;;;8.70;99.90;;;;;;4991050;28;20100;-94
2023/04/11 06:52:30;;;;;;;12.27;3.45;;;8.70;99.90;;;;;;4988771;28;20065;-91
2023/04/11 06:54:55;;;;;;;10.73;3.10;;;8.70;99.90;;;;;;4993033;28;20046;-93
2023/04/11 06:57:21;;;;;;;11.35;3.10;;;8.60;99.90;;;;;;4994511;28;20050;-95
2023/04/11 06:59:46;;;;;;;5.70;1.38;;;8.70;99.90;;;;;;4971709;28;20111;-94
2023/04/11 07:02:12;;;;;;;10.63;2.72;;;8.60;99.90;;;;;;4966752;28;20448;-94
2023/04/11 07:04:38;;;;;;;9.25;2.72;;;8.60;99.90;;;;;;4993089;28;20406;-93
2023/04/11 07:07:04;;;;;;;10.50;3.00;;;8.60;99.90;;;;;;4997136;28;20054;-93
2023/04/11 07:09:30;;;;;;;10.35;3.22;;;8.70;99.90;;;;;;4993317;28;20121;-91
2023/04/11 07:11:56;;;;;;;9.63;2.80;;;8.90;99.90;;;;;;4992170;28;20038;-94
2023/04/11 07:14:22;;;;;;;10.63;2.60;;;8.90;99.90;;;;;;4993674;28;20061;-96
2023/04/11 07:16:47;;;;;;;10.88;2.85;;;8.90;99.90;;;;;;4976584;28;20050;-92
2023/04/11 07:19:13;;;;;;;13.25;3.30;;;8.90;99.90;;;;;;4994488;28;20073;-92
2023/04/11 07:21:38;;;;;;;12.52;2.97;;;9.00;99.90;;;;;;4990564;28;20056;-92
2023/04/11 07:24:05;;;;;;;10.65;2.72;;;9.00;99.90;;;;;;4990949;28;20113;-94
2023/04/11 07:26:31;;;;;;;11.68;3.30;;;9.00;99.90;;;;;;4989524;28;20041;-94
2023/04/11 07:28:58;;;;;;;12.35;3.00;;;9.10;99.90;;;;;;4992174;28;20490;-95
2023/04/11 07:31:24;;;;;;;11.23;2.80;;;9.10;99.90;;;;;;4993883;28;20083;-94
2023/04/11 07:33:50;;;;;;;9.85;2.97;;;9.10;99.90;;;;;;4993854;28;20394;-95
2023/04/11 07:36:15;;;;;;;11.50;3.60;;;9.20;99.90;;;;;;4965726;28;20074;-92
2023/04/11 07:38:41;;;;;;;9.13;2.72;;;9.30;99.90;;;;;;4993382;28;20034;-94
2023/04/11 07:41:08;;;;;;;12.55;3.15;;;9.30;99.90;;;;;;4977222;28;20324;-91
2023/04/11 07:43:34;;;;;;;10.15;2.63;;;9.30;99.90;;;;;;4972478;28;20114;-92
2023/04/11 07:45:59;;;;;;;11.15;3.47;;;9.30;99.90;;;;;;4990934;28;20058;-89
2023/04/11 07:48:26;;;;;;;10.77;3.38;;;9.30;99.90;;;;;;4980691;28;20066;-92
2023/04/11 07:50:53;;;;;;;11.38;2.85;;;9.30;99.90;;;;;;4992114;28;20049;-94
2023/04/11 07:53:20;;;;;;;10.38;2.67;;;9.30;99.90;;;;;;4989377;28;20053;-92
2023/04/11 07:55:45;;;;;;;9.70;2.90;;;9.30;99.90;;;;;;4991593;28;20038;-93
2023/04/11 07:58:11;;;;;;;12.40;3.08;;;9.40;99.90;;;;;;4957952;28;20042;-91
2023/04/11 08:00:37;;;;;;;7.63;2.33;;;9.30;99.90;;;;;;4967497;28;20053;-90
2023/04/11 08:03:07;;;;;;;10.85;2.50;;;9.30;99.90;;;;;;4984207;28;20042;-90
2023/04/11 08:05:34;;;;;;;11.00;3.30;;;9.40;99.90;;;;;;4992115;28;20046;-92
2023/04/11 08:08:00;;;;;;;10.93;2.95;;;9.40;99.90;;;;;;4989064;28;20434;-91
2023/04/11 08:10:26;;;;;;;11.48;2.70;;;9.40;99.90;;;;;;4973024;28;20040;-93
2023/04/11 08:12:51;;;;;;;10.27;2.53;;;9.50;99.90;;;;;;4958471;28;20141;-92
2023/04/11 08:15:17;;;;;;;12.32;2.95;;;9.40;99.90;;;;;;4991014;28;20047;-93
2023/04/11 08:17:44;;;;;;;14.18;3.28;;;9.30;99.90;;;;;;4996278;28;20093;-92
2023/04/11 08:20:12;;;;;;;10.30;2.60;;;9.40;99.90;;;;;;4998409;28;20111;-94
2023/04/11 08:22:40;;;;;;;10.13;2.60;;;9.40;99.90;;;;;;4998832;28;20048;-94
2023/04/11 08:25:08;;;;;;;11.18;2.47;;;9.50;99.90;;;;;;4992725;28;20042;-94
2023/04/11 08:27:34;;;;;;;10.00;2.67;;;9.60;99.90;;;;;;4993917;28;20050;-90
2023/04/11 08:30:00;;;;;;;12.23;2.63;;;9.60;99.90;;;;;;4993391;28;20038;-95
2023/04/11 08:32:26;;;;;;;10.73;3.05;;;9.50;99.90;;;;;;4991781;28;20046;-94
2023/04/11 08:34:52;;;;;;;12.90;3.00;;;9.50;99.90;;;;;;4992459;28;20041;-92
2023/04/11 08:37:17;;;;;;;10.20;2.38;;;9.50;99.90;;;;;;4977104;28;20074;-93
2023/04/11 08:39:43;;;;;;;10.30;2.55;;;9.50;99.90;;;;;;4993218;28;20038;-92
2023/04/11 08:42:26;;;;;;;11.07;2.80;;;9.70;99.90;;;;;;4994703;28;20042;-93
2023/04/11 08:44:53;;;;;;;11.32;2.75;;;9.90;99.90;;;;;;4986758;28;20513;-86
2023/04/11 08:47:20;;;;;;;9.68;2.38;;;10.10;99.90;;;;;;4984139;28;20128;-87
2023/04/11 08:49:45;;;;;;;10.98;2.25;;;10.30;99.90;;;;;;4987056;28;20045;-87
2023/04/11 08:52:12;;;;;;;9.50;2.08;;;10.40;99.90;;;;;;4973395;28;20042;-87
2023/04/11 08:54:37;;;;;;;8.80;2.30;;;10.30;99.90;;;;;;4987078;28;20064;-85
2023/04/11 08:57:03;;;;;;;8.90;2.10;;;10.40;99.90;;;;;;4988332;28;20038;-90
2023/04/11 08:59:28;;;;;;;8.20;2.13;;;10.30;99.90;;;;;;4986970;28;20053;-87
2023/04/11 09:02:07;;;;;;;11.18;2.60;;;10.20;99.90;;;;;;4989881;28;20069;-89
2023/04/11 09:04:40;;;;;;;11.27;3.53;;;10.00;99.90;;;;;;4987598;28;20065;-91
2023/04/11 09:07:06;;;;;;;8.32;2.40;;;10.00;99.90;;;;;;4987328;28;20152;-87
2023/04/11 09:09:32;;;;;;;11.25;2.63;;;10.00;99.90;;;;;;4987131;28;20030;-85
2023/04/11 09:11:58;;;;;;;12.15;2.50;;;10.10;99.90;;;;;;4986935;28;20493;-91
2023/04/11 09:14:28;;;;;;;9.25;2.42;;;10.30;99.90;;;;;;4987005;28;20069;-88
2023/04/11 09:17:15;;;;;;;10.35;2.55;;;10.50;99.90;;;;;;4989175;28;20410;-87
2023/04/11 09:19:41;;;;;;;9.73;2.42;;;10.70;99.90;;;;;;4981246;28;20042;-86
2023/04/11 09:22:07;;;;;;;9.40;2.15;;;10.90;99.90;;;;;;4988074;28;20074;-86
2023/04/11 09:24:34;;;;;;;10.77;2.90;;;10.90;99.90;;;;;;4987050;28;20061;-89
2023/04/11 09:27:15;;;;;;;8.95;2.28;;;10.80;99.90;;;;;;4988535;28;20046;-93
2023/04/11 09:29:45;;;;;;;7.68;2.50;;;10.70;99.90;;;;;;4990778;28;20046;-89
2023/04/11 09:32:32;;;;;;;10.18;2.38;;;10.50;99.90;;;;;;4992685;28;20054;-92
2023/04/11 09:35:11;;;;;;;9.70;2.50;;;10.30;99.90;;;;;;4995337;28;20446;-91
2023/04/11 09:37:48;;;;;;;8.45;2.50;;;10.40;99.90;;;;;;4989968;28;20042;-94
2023/04/11 09:40:15;;;;;;;9.70;2.22;;;10.60;99.90;;;;;;4990149;28;20099;-88
2023/04/11 09:42:42;;;;;;;8.10;2.30;;;10.80;99.90;;;;;;4991739;28;20121;-90
2023/04/11 09:45:22;;;;;;;8.43;2.60;;;10.90;99.90;;;;;;4990142;28;20104;-94
2023/04/11 09:47:49;;;;;;;9.93;2.30;;;11.10;99.90;;;;;;4989628;28;20050;-92
2023/04/11 09:50:16;;;;;;;7.80;1.73;;;11.20;99.90;;;;;;4986475;28;20046;-89
2023/04/11 09:52:43;;;;;;;8.70;1.95;;;11.20;99.90;;;;;;4987577;28;20503;-87
2023/04/11 09:55:13;;;;;;;10.70;2.40;;;11.30;99.90;;;;;;4988779;28;20391;-92
2023/04/11 09:57:50;;;;;;;10.18;2.30;;;11.40;99.90;;;;;;4983785;28;20034;-95
2023/04/11 10:00:21;;;;;;;10.85;2.30;;;11.30;99.90;;;;;;4988444;28;20054;-92
2023/04/11 10:02:48;;;;;;;11.68;2.65;;;11.20;99.90;;;;;;4984486;28;20046;-91
2023/04/11 10:05:16;;;;;;;11.25;2.47;;;11.00;99.90;;;;;;4992212;28;20086;-90
2023/04/11 10:07:58;;;;;;;11.95;2.63;;;10.90;99.90;;;;;;5007841;28;20124;-91
2023/04/11 10:10:24;;;;;;;9.23;2.80;;;10.80;99.90;;;;;;5005930;28;20053;-89
2023/04/11 10:12:50;;;;;;;9.27;2.20;;;10.90;99.90;;;;;;5016820;28;20235;-91
2023/04/11 10:15:16;;;;;;;12.88;3.15;;;11.00;99.90;;;;;;5014038;28;20509;-90
2023/04/11 10:18:11;;;;;;;11.93;3.13;;;11.10;99.90;;;;;;5011484;28;20038;-92
2023/04/11 10:20:45;;;;;;;9.32;2.45;;;11.30;99.90;;;;;;5011508;28;20046;-91
2023/04/11 10:23:12;;;;;;;11.98;2.75;;;11.60;99.90;;;;;;5009132;28;20068;-93
2023/04/11 10:25:57;;;;;;;10.90;2.80;;;11.70;99.90;;;;;;5010017;28;20430;-93
2023/04/11 10:28:38;;;;;;;10.35;2.40;;;11.50;99.90;;;;;;5013299;28;20054;-86
2023/04/11 10:31:11;;;;;;;9.43;2.90;;;11.40;99.90;;;;;;5012066;28;20034;-87
2023/04/11 10:33:39;;;;;;;11.45;2.42;;;11.20;99.90;;;;;;5010244;28;20053;-92
2023/04/11 10:36:11;;;;;;;11.23;2.63;;;10.90;99.90;;;;;;5011854;28;20041;-92
2023/04/11 10:38:40;;;;;;;9.85;2.65;;;10.60;99.90;;;;;;5011802;28;20034;-89
2023/04/11 10:41:32;;;;;;;11.23;2.60;;;10.20;99.90;;;;;;5016927;28;20052;-93
2023/04/11 10:44:22;;;;;;;11.38;2.33;;;9.80;99.90;;;;;;5016959;28;20103;-88
2023/04/11 10:46:50;;;;;;;10.82;2.95;;;9.60;99.90;;;;;;5014368;28;20572;-91
2023/04/11 10:49:37;;;;;;;11.15;3.15;;;9.60;99.90;;;;;;5014763;28;20439;-94
2023/04/11 10:52:15;;;;;;;12.45;2.60;;;9.50;99.90;;;;;;5011409;28;20537;-94
2023/04/11 10:54:42;;;;;;;11.85;3.22;;;9.40;99.90;;;;;;5007430;28;20069;-91
2023/04/11 10:57:07;;;;;;;12.98;3.55;;;9.40;99.90;;;;;;5010215;28;20120;-93
2023/04/11 10:59:33;;;;;;;10.93;3.50;;;9.70;99.90;;;;;;5014392;28;22059;-93
2023/04/11 11:02:00;;;;;;;11.43;2.47;;;9.70;99.90;;;;;;5012732;28;20050;-87
2023/04/11 11:04:34;;;;;;;10.60;3.13;;;9.90;99.90;;;;;;5008897;28;20046;-93
2023/04/11 11:07:02;;;;;;;12.50;2.60;;;9.90;99.90;;;;;;4995329;28;20065;-92
2023/04/11 11:09:29;;;;;;;9.48;2.33;;;10.10;99.90;;;;;;4977734;28;20046;-90
2023/04/11 11:12:15;;;;;;;8.20;2.15;;;10.30;99.90;;;;;;4989759;28;20043;-92
2023/04/11 11:14:44;;;;;;;10.55;2.40;;;10.30;99.90;;;;;;4992389;28;20050;-89
2023/04/11 11:17:11;;;;;;;8.68;2.60;;;10.50;99.90;;;;;;4980504;28;21759;-91
2023/04/11 11:19:41;;;;;;;9.48;2.25;;;10.60;99.90;;;;;;4972749;28;20046;-93
2023/04/11 11:22:14;;;;;;;12.43;2.50;;;10.70;99.90;;;;;;4990017;28;20038;-93
2023/04/11 11:24:39;;;;;;;9.63;2.38;;;10.70;99.90;;;;;;4987790;28;20045;-88
2023/04/11 11:27:05;;;;;;;10.10;2.13;;;10.80;99.90;;;;;;4991336;28;20030;-95
2023/04/11 11:29:34;;;;;;;10.68;2.30;;;10.90;99.90;;;;;;4958564;28;20093;-91
2023/04/11 11:32:03;;;;;;;10.57;2.30;;;11.10;99.90;;;;;;4988677;28;20034;-91
2023/04/11 11:34:33;;;;;;;8.50;2.03;;;11.20;99.90;;;;;;4988017;28;20027;-92
2023/04/11 11:37:03;;;;;;;10.73;2.45;;;11.10;99.90;;;;;;4974205;28;20046;-88
2023/04/11 11:39:30;;;;;;;9.90;2.13;;;10.80;99.90;;;;;;4990347;28;20042;-94
2023/04/11 11:41:57;;;;;;;8.63;2.33;;;10.80;99.90;;;;;;4988468;28;20663;-91
2023/04/11 11:44:27;;;;;;;11.57;2.33;;;11.00;99.90;;;;;;4988469;28;20038;-89
2023/04/11 11:47:15;;;;;;;7.50;1.80;;;11.20;99.90;;;;;;4989092;28;20057;-90
2023/04/11 11:49:49;;;;;;;8.63;1.83;;;11.30;99.90;;;;;;4969830;28;20069;-89
2023/04/11 11:52:40;;;;;;;10.68;2.28;;;11.40;99.90;;;;;;4973588;28;20050;-93
2023/04/11 11:55:08;;;;;;;7.13;2.00;;;11.50;99.90;;;;;;4989546;28;20062;-88
2023/04/11 11:57:36;;;;;;;7.82;1.83;;;11.70;99.90;;;;;;4972481;28;20039;-91
2023/04/11 12:00:08;;;;;;;11.93;2.25;;;11.70;99.90;;;;;;4973468;28;20136;-89
2023/04/11 12:02:37;;;;;;;8.30;1.95;;;11.70;99.90;;;;;;4990256;28;20043;-90
2023/04/11 12:05:05;;;;;;;11.88;2.33;;;11.70;99.90;;;;;;4991142;28;20105;-87
2023/04/11 12:07:32;;;;;;;9.15;2.13;;;11.80;99.90;;;;;;4985954;28;20465;-89
2023/04/11 12:10:10;;;;;;;6.95;1.95;;;11.70;99.90;;;;;;4990263;28;20050;-92
2023/04/11 12:12:38;;;;;;;10.52;2.35;;;11.70;99.90;;;;;;4985177;28;20042;-88
2023/04/11 12:15:10;;;;;;;8.48;2.17;;;11.60;99.90;;;;;;4989159;28;20098;-89
2023/04/11 12:17:36;;;;;;;7.75;2.08;;;11.60;99.90;;;;;;4987685;28;20042;-89
2023/04/11 12:20:09;;;;;;;8.32;2.00;;;11.50;99.90;;;;;;4991853;28;20057;-89
2023/04/11 12:22:36;;;;;;;9.68;2.28;;;11.50;99.90;;;;;;4985508;28;20046;-88
2023/04/11 12:25:08;;;;;;;8.02;2.22;;;11.70;99.90;;;;;;4988971;28;20053;-90
2023/04/11 12:27:36;;;;;;;6.65;1.65;;;12.00;99.90;;;;;;4986904;28;20389;-90
2023/04/11 12:30:03;;;;;;;7.30;1.75;;;12.20;99.90;;;;;;4987701;28;20053;-90
2023/04/11 12:32:29;;;;;;;9.73;2.00;;;12.40;99.90;;;;;;4987939;28;20109;-91
2023/04/11 12:34:55;;;;;;;7.85;2.05;;;12.50;99.90;;;;;;4972836;28;20058;-88
2023/04/11 12:37:21;;;;;;;7.68;1.67;;;12.60;99.90;;;;;;4988317;28;20049;-93
2023/04/11 12:39:46;;;;;;;8.68;1.80;;;12.50;99.90;;;;;;4987307;28;20054;-90
2023/04/11 12:42:12;;;;;;;8.93;1.92;;;12.50;99.90;;;;;;4974796;28;20046;-89
2023/04/11 12:44:38;;;;;;;10.85;2.00;;;12.50;99.90;;;;;;4987495;28;20042;-87
2023/04/11 12:47:04;;;;;;;8.35;1.80;;;12.60;99.90;;;;;;4986101;28;20042;-85
2023/04/11 12:49:29;;;;;;;8.05;1.95;;;12.50;99.90;;;;;;4988870;28;20399;-95
2023/04/11 12:51:55;;;;;;;7.85;1.85;;;12.50;99.90;;;;;;4987807;28;20739;-88
2023/04/11 12:54:20;;;;;;;8.32;2.03;;;12.50;99.90;;;;;;4993404;28;20033;-90
2023/04/11 12:56:46;;;;;;;7.90;2.17;;;12.30;99.90;;;;;;4989730;28;20065;-90
2023/04/11 12:59:12;;;;;;;7.70;1.85;;;12.50;99.90;;;;;;4988326;28;20483;-91
2023/04/11 13:01:37;;;;;;;9.82;1.95;;;12.50;99.90;;;;;;4992350;28;20042;-93
2023/04/11 13:04:03;;;;;;;8.05;2.22;;;12.60;99.90;;;;;;4991126;28;20069;-91
2023/04/11 13:06:29;;;;;;;8.07;2.10;;;12.60;99.90;;;;;;4990469;28;20314;-92
2023/04/11 13:08:55;;;;;;;10.80;2.58;;;12.60;99.90;;;;;;4986822;28;20053;-88
2023/04/11 13:11:21;;;;;;;7.22;1.70;;;12.70;99.90;;;;;;4987177;28;20112;-87
2023/04/11 13:13:48;;;;;;;7.30;2.28;;;12.70;99.90;;;;;;4987597;28;20455;-86
2023/04/11 13:16:14;;;;;;;10.15;2.30;;;12.70;99.90;;;;;;4987020;28;20046;-84
2023/04/11 13:18:40;;;;;;;9.75;2.03;;;12.40;99.90;;;;;;4987272;28;20038;-93
2023/04/11 13:21:06;;;;;;;8.15;1.98;;;12.20;99.90;;;;;;4988418;28;20034;-92
2023/04/11 13:23:32;;;;;;;10.82;2.97;;;11.90;99.90;;;;;;4990263;28;20046;-91
2023/04/11 13:25:59;;;;;;;9.68;2.30;;;11.80;99.90;;;;;;4990674;28;20477;-93
2023/04/11 13:28:25;;;;;;;9.82;2.20;;;11.70;99.90;;;;;;4990090;28;20442;-93
2023/04/11 13:30:51;;;;;;;9.70;2.13;;;11.90;99.90;;;;;;4970370;28;20039;-91
2023/04/11 13:33:16;;;;;;;8.60;2.17;;;11.90;99.90;;;;;;4990729;28;20034;-95
2023/04/11 13:35:42;;;;;;;10.10;2.15;;;11.90;99.90;;;;;;4970478;28;20049;-92
2023/04/11 13:38:09;;;;;;;8.82;1.95;;;11.80;99.90;;;;;;4986918;28;20049;-88
2023/04/11 13:40:37;;;;;;;10.65;2.60;;;11.90;99.90;;;;;;4967648;28;20050;-90
2023/04/11 13:43:03;;;;;;;9.30;2.20;;;12.00;99.90;;;;;;4987313;28;20038;-96
2023/04/11 13:45:28;;;;;;;8.57;2.25;;;11.90;99.90;;;;;;4988403;28;20038;-92
2023/04/11 13:47:54;;;;;;;7.97;2.28;;;11.90;99.90;;;;;;4988910;28;20035;-90
2023/04/11 13:50:20;;;;;;;8.40;2.05;;;12.10;99.90;;;;;;4990821;28;20066;-91
2023/04/11 13:52:46;;;;;;;8.80;1.90;;;12.30;99.90;;;;;;4972184;28;20042;-90
2023/04/11 13:55:11;;;;;;;8.85;2.10;;;12.40;99.90;;;;;;4988107;28;20074;-87
2023/04/11 13:57:37;;;;;;;11.02;2.75;;;12.40;99.90;;;;;;4987671;28;20734;-90
2023/04/11 14:00:09;;;;;;;8.38;2.15;;;12.20;99.90;;;;;;4973472;28;20034;-89
2023/04/11 14:02:35;;;;;;;8.80;2.00;;;12.20;99.90;;;;;;4992120;28;20042;-87
2023/04/11 14:05:01;;;;;;;8.13;2.22;;;12.00;99.90;;;;;;4990521;28;20062;-89
2023/04/11 14:07:26;;;;;;;8.98;2.67;;;11.70;99.90;;;;;;4989525;28;20069;-91
2023/04/11 14:09:52;;;;;;;10.95;2.88;;;11.70;99.90;;;;;;4973223;28;20046;-88
2023/04/11 14:12:17;;;;;;;8.48;2.45;;;11.70;99.90;;;;;;4973167;28;20042;-88
2023/04/11 14:14:43;;;;;;;9.30;2.55;;;11.60;99.90;;;;;;4966394;28;20057;-90